Time;durP1;ratioP1;P1;durP2;ratioP2;P2;SDS_P1;SDS_P2;PMS_P1;PMS_P2;Temp;Humidity;BMP_temperature;BMP_pressure;BME280_temperature;BME280_humidity;BME280_pressure;Samples;Min_cycle;Max_cycle;Signal;HPM_P1;HPM_P2
2023/05/09 00:00:36;;;;;;;19.37;10.27;;;9.70;61.50;;;;;;5080923;28;46795;-67
2023/05/09 00:03:04;;;;;;;18.37;10.33;;;9.70;61.40;;;;;;5080138;28;47008;-66
2023/05/09 00:05:30;;;;;;;19.93;11.20;;;9.70;61.50;;;;;;5082062;28;46427;-66
2023/05/09 00:07:56;;;;;;;24.50;11.90;;;9.70;61.60;;;;;;5081665;28;46495;-66
2023/05/09 00:10:21;;;;;;;17.90;10.63;;;9.70;61.50;;;;;;5080981;28;45926;-67
2023/05/09 00:12:48;;;;;;;23.17;10.77;;;9.70;61.50;;;;;;5081380;28;46388;-67
2023/05/09 00:15:14;;;;;;;21.30;11.87;;;9.70;61.50;;;;;;5081550;28;45839;-67
2023/05/09 00:17:40;;;;;;;21.63;13.00;;;9.80;61.40;;;;;;5080681;28;46438;-67
2023/05/09 00:20:11;;;;;;;19.33;11.57;;;9.80;61.20;;;;;;5077890;28;46450;-67
2023/05/09 00:22:38;;;;;;;21.73;12.50;;;9.80;61.30;;;;;;5080546;28;46701;-67
2023/05/09 00:25:06;;;;;;;24.00;11.03;;;9.70;61.30;;;;;;5079888;28;45888;-67
2023/05/09 00:27:31;;;;;;;26.13;12.00;;;9.70;61.40;;;;;;5081190;28;46896;-67
2023/05/09 00:29:57;;;;;;;14.20;7.67;;;9.60;61.50;;;;;;5081622;28;46538;-66
2023/05/09 00:32:24;;;;;;;11.77;8.13;;;9.60;61.70;;;;;;5079074;28;46423;-67
2023/05/09 00:34:50;;;;;;;12.00;7.90;;;9.50;61.80;;;;;;5080775;28;45858;-67
2023/05/09 00:37:18;;;;;;;15.07;9.50;;;9.40;61.90;;;;;;5080266;28;46583;-67
2023/05/09 00:39:46;;;;;;;19.20;11.67;;;9.40;61.90;;;;;;5082088;28;46460;-66
2023/05/09 00:42:12;;;;;;;22.43;13.17;;;9.50;61.90;;;;;;5078759;28;46369;-66
2023/05/09 00:44:38;;;;;;;24.13;14.73;;;9.50;61.70;;;;;;5081774;28;45841;-66
2023/05/09 00:47:03;;;;;;;18.77;12.90;;;9.50;61.70;;;;;;5079917;28;46155;-66
2023/05/09 00:49:29;;;;;;;22.73;13.97;;;9.40;61.70;;;;;;5082745;28;46402;-66
2023/05/09 00:51:55;;;;;;;26.23;15.27;;;9.40;62.80;;;;;;5079681;28;46828;-66
2023/05/09 00:54:21;;;;;;;27.20;14.50;;;9.40;61.80;;;;;;5079988;28;45866;-66
2023/05/09 00:56:47;;;;;;;25.93;15.63;;;9.40;61.80;;;;;;5081275;28;45901;-68
2023/05/09 00:59:13;;;;;;;32.17;17.40;;;9.40;61.80;;;;;;5079958;28;46368;-67
2023/05/09 01:01:38;;;;;;;37.07;18.70;;;9.30;61.80;;;;;;5078594;28;46535;-66
2023/05/09 01:04:04;;;;;;;35.37;19.87;;;9.30;62.00;;;;;;5078393;28;45889;-66
2023/05/09 01:06:45;;;;;;;36.60;19.43;;;9.40;62.10;;;;;;5079434;28;46469;-66
2023/05/09 01:09:31;;;;;;;42.27;22.20;;;9.40;62.30;;;;;;5080124;28;46462;-66
2023/05/09 01:12:27;;;;;;;39.40;22.63;;;9.40;61.10;;;;;;5079418;28;46443;-66
2023/05/09 01:15:03;;;;;;;36.80;18.70;;;9.40;62.20;;;;;;5081935;28;46436;-67
2023/05/09 01:17:28;;;;;;;24.20;14.83;;;9.40;62.10;;;;;;5080186;28;46468;-66
2023/05/09 01:20:13;;;;;;;18.53;11.10;;;9.40;62.20;;;;;;5077207;28;46741;-66
2023/05/09 01:22:44;;;;;;;16.87;10.97;;;9.30;62.50;;;;;;5078534;28;46694;-66
2023/05/09 01:25:47;;;;;;;18.50;10.53;;;9.20;62.70;;;;;;5079465;28;46299;-66
2023/05/09 01:28:23;;;;;;;29.17;16.50;;;9.20;62.60;;;;;;5080708;28;46320;-66
2023/05/09 01:30:52;;;;;;;55.47;27.43;;;9.20;62.50;;;;;;5085684;28;45909;-66
2023/05/09 01:33:20;;;;;;;52.57;27.60;;;9.30;62.40;;;;;;5078450;28;46421;-66
2023/05/09 01:35:50;;;;;;;60.17;30.30;;;9.40;62.50;;;;;;5081038;28;45946;-66
2023/05/09 01:38:20;;;;;;;50.30;26.37;;;9.40;62.90;;;;;;5078172;28;45863;-67
2023/05/09 01:40:50;;;;;;;49.17;28.03;;;9.40;62.90;;;;;;5078927;28;46154;-67
2023/05/09 01:43:18;;;;;;;52.47;28.20;;;9.50;63.10;;;;;;5076575;28;46013;-67
2023/05/09 01:45:44;;;;;;;52.03;28.00;;;9.50;63.30;;;;;;5080021;28;45809;-67
2023/05/09 01:48:11;;;;;;;61.13;29.17;;;9.50;63.50;;;;;;5080748;28;46364;-66
2023/05/09 01:50:39;;;;;;;55.50;29.50;;;9.50;63.80;;;;;;5079311;28;46384;-66
2023/05/09 01:53:07;;;;;;;53.50;27.30;;;9.50;64.20;;;;;;5078558;28;46242;-66
2023/05/09 01:55:34;;;;;;;49.33;26.20;;;9.50;64.20;;;;;;5080292;28;46511;-66
2023/05/09 01:58:01;;;;;;;51.67;26.50;;;9.50;64.50;;;;;;5078343;28;45857;-66
2023/05/09 02:00:27;;;;;;;50.33;26.90;;;9.50;64.90;;;;;;5078233;28;46798;-66
2023/05/09 02:02:55;;;;;;;45.80;25.70;;;9.50;65.00;;;;;;5079865;28;47297;-66
2023/05/09 02:05:26;;;;;;;41.60;24.93;;;9.50;65.00;;;;;;5077372;28;47249;-66
2023/05/09 02:07:53;;;;;;;44.93;24.83;;;9.50;65.00;;;;;;5079436;28;46329;-66
2023/05/09 02:10:20;;;;;;;48.10;26.10;;;9.50;65.10;;;;;;5079062;28;45901;-66
2023/05/09 02:12:45;;;;;;;42.73;23.77;;;9.50;65.50;;;;;;5075570;28;46321;-66
2023/05/09 02:15:11;;;;;;;50.10;27.37;;;9.50;65.70;;;;;;5075536;28;46510;-67
2023/05/09 02:17:37;;;;;;;43.87;24.80;;;9.50;65.60;;;;;;5079952;28;46440;-66
2023/05/09 02:20:04;;;;;;;41.67;24.70;;;9.50;65.80;;;;;;5078113;28;45960;-66
2023/05/09 02:22:29;;;;;;;45.67;23.60;;;9.40;65.60;;;;;;5073281;28;46453;-66
2023/05/09 02:24:56;;;;;;;36.17;20.37;;;9.40;65.70;;;;;;5076701;28;46366;-66
2023/05/09 02:27:21;;;;;;;36.70;20.37;;;9.30;65.80;;;;;;5077109;28;46403;-66
2023/05/09 02:29:49;;;;;;;29.87;18.80;;;9.20;65.90;;;;;;5077080;28;46382;-66
2023/05/09 02:32:20;;;;;;;28.13;17.53;;;9.10;66.10;;;;;;5075636;28;47352;-66
2023/05/09 02:34:47;;;;;;;33.70;18.70;;;9.10;66.20;;;;;;5078849;28;46469;-65
2023/05/09 02:37:14;;;;;;;35.90;19.03;;;9.00;66.30;;;;;;5077125;28;46336;-66
2023/05/09 02:39:40;;;;;;;43.10;23.07;;;9.00;66.30;;;;;;5078920;28;46536;-65
2023/05/09 02:42:10;;;;;;;37.80;22.90;;;9.00;66.30;;;;;;5076946;28;47328;-65
2023/05/09 02:44:36;;;;;;;39.77;23.43;;;8.90;66.30;;;;;;5077253;28;46479;-66
2023/05/09 02:47:02;;;;;;;39.50;22.47;;;8.90;66.30;;;;;;5078686;28;46423;-66
2023/05/09 02:49:28;;;;;;;46.73;23.90;;;8.90;66.40;;;;;;5075227;28;46313;-65
2023/05/09 02:51:53;;;;;;;40.43;23.83;;;9.00;65.70;;;;;;5078542;28;46605;-66
2023/05/09 02:54:20;;;;;;;40.33;23.50;;;8.90;66.60;;;;;;5075641;28;46470;-66
2023/05/09 02:56:46;;;;;;;37.20;22.40;;;8.90;66.40;;;;;;5077954;28;46319;-66
2023/05/09 02:59:11;;;;;;;36.57;22.63;;;9.00;66.50;;;;;;5076208;28;45814;-65
2023/05/09 03:01:37;;;;;;;36.77;21.93;;;8.90;66.40;;;;;;5077035;28;46374;-65
2023/05/09 03:04:03;;;;;;;43.43;21.63;;;8.90;66.30;;;;;;5077812;28;46361;-64
2023/05/09 03:06:29;;;;;;;34.03;20.87;;;8.80;66.30;;;;;;5077300;28;46444;-66
2023/05/09 03:08:55;;;;;;;35.37;21.27;;;8.80;66.50;;;;;;5077411;28;46593;-65
2023/05/09 03:11:21;;;;;;;31.83;19.20;;;8.80;66.50;;;;;;5076113;28;47107;-66
2023/05/09 03:13:47;;;;;;;39.27;22.90;;;8.80;66.40;;;;;;5076265;28;46260;-66
2023/05/09 03:16:14;;;;;;;44.57;20.93;;;8.80;66.40;;;;;;5077607;28;46540;-66
2023/05/09 03:18:40;;;;;;;39.80;22.33;;;8.70;66.10;;;;;;5075372;27;46326;-65
2023/05/09 03:21:05;;;;;;;38.80;21.53;;;8.70;66.20;;;;;;5080012;28;46356;-66
2023/05/09 03:23:31;;;;;;;38.00;22.03;;;8.70;66.20;;;;;;5077318;28;46514;-66
2023/05/09 03:25:57;;;;;;;47.13;24.43;;;8.70;66.30;;;;;;5079738;27;46431;-66
2023/05/09 03:28:22;;;;;;;51.93;24.60;;;8.70;66.20;;;;;;5081064;28;46336;-66
2023/05/09 03:30:49;;;;;;;42.10;23.50;;;8.60;66.40;;;;;;5081442;28;47092;-62
2023/05/09 03:33:14;;;;;;;39.03;21.87;;;8.60;66.30;;;;;;5080654;28;45848;-64
2023/05/09 03:35:40;;;;;;;37.50;20.47;;;8.60;66.30;;;;;;5079408;28;46660;-65
2023/05/09 03:38:06;;;;;;;37.60;21.43;;;8.60;66.30;;;;;;5081837;28;46472;-62
2023/05/09 03:40:31;;;;;;;40.93;22.00;;;8.60;66.20;;;;;;5082072;28;46307;-64
2023/05/09 03:42:57;;;;;;;39.73;23.00;;;8.60;66.20;;;;;;5078728;28;46413;-65
2023/05/09 03:45:22;;;;;;;39.40;23.20;;;8.60;66.30;;;;;;5077010;28;46555;-64
2023/05/09 03:47:48;;;;;;;38.93;21.80;;;8.60;66.00;;;;;;5082708;28;46586;-64
2023/05/09 03:50:13;;;;;;;39.43;23.13;;;8.70;66.00;;;;;;5075311;28;46357;-64
2023/05/09 03:52:39;;;;;;;38.80;20.10;;;8.60;65.90;;;;;;5079511;28;46296;-65
2023/05/09 03:55:06;;;;;;;34.27;20.10;;;8.70;65.70;;;;;;5078932;27;46423;-65
2023/05/09 03:57:33;;;;;;;34.97;19.47;;;8.70;65.70;;;;;;5080060;27;46576;-66
2023/05/09 03:59:58;;;;;;;32.00;18.53;;;8.70;65.50;;;;;;5078328;28;46484;-66
2023/05/09 04:02:24;;;;;;;31.83;19.43;;;8.80;65.40;;;;;;5077841;28;46424;-66
2023/05/09 04:04:51;;;;;;;32.93;17.77;;;8.90;65.00;;;;;;5078973;28;46141;-66
2023/05/09 04:07:17;;;;;;;31.13;17.27;;;9.00;64.60;;;;;;5077968;28;46005;-66
2023/05/09 04:09:43;;;;;;;35.70;18.83;;;9.10;65.80;;;;;;5080527;28;46310;-66
2023/05/09 04:12:09;;;;;;;30.00;17.37;;;9.20;64.00;;;;;;5076043;27;46429;-66
2023/05/09 04:14:34;;;;;;;26.50;15.60;;;9.30;63.70;;;;;;5077370;28;46314;-66
2023/05/09 04:17:00;;;;;;;23.63;13.93;;;9.50;63.40;;;;;;5081096;28;46378;-66
2023/05/09 04:19:26;;;;;;;25.27;14.90;;;9.60;63.00;;;;;;5084063;28;46504;-66
2023/05/09 04:21:51;;;;;;;21.63;12.90;;;9.70;62.70;;;;;;5078477;28;46530;-66
2023/05/09 04:24:17;;;;;;;20.20;13.03;;;9.80;62.30;;;;;;5079233;28;46422;-66
2023/05/09 04:26:42;;;;;;;22.27;13.30;;;9.90;62.10;;;;;;5079032;28;46346;-66
2023/05/09 04:29:08;;;;;;;20.40;12.73;;;10.00;60.90;;;;;;5079529;28;47201;-66
2023/05/09 04:31:34;;;;;;;25.03;14.20;;;10.10;60.90;;;;;;5078268;28;46404;-66
2023/05/09 04:34:00;;;;;;;27.37;15.83;;;10.20;60.90;;;;;;5078286;28;46560;-66
2023/05/09 04:36:26;;;;;;;23.93;15.07;;;10.10;60.80;;;;;;5078022;28;46442;-66
2023/05/09 04:38:52;;;;;;;25.03;15.30;;;10.20;61.10;;;;;;5079279;27;46500;-66
2023/05/09 04:41:17;;;;;;;26.30;17.10;;;10.20;61.10;;;;;;5077956;28;46345;-65
2023/05/09 04:43:43;;;;;;;26.63;17.50;;;10.30;60.80;;;;;;5077621;28;46360;-65
2023/05/09 04:46:09;;;;;;;29.57;17.97;;;10.40;60.20;;;;;;5079474;28;46334;-66
2023/05/09 04:48:35;;;;;;;26.43;18.30;;;10.50;60.00;;;;;;5078268;28;46368;-66
2023/05/09 04:51:01;;;;;;;27.80;17.20;;;10.60;59.80;;;;;;5078480;28;46046;-66
2023/05/09 04:53:27;;;;;;;28.50;17.60;;;10.70;59.30;;;;;;5075446;28;46489;-66
2023/05/09 04:55:53;;;;;;;31.53;18.53;;;10.70;59.40;;;;;;5079602;28;46531;-66
2023/05/09 04:58:19;;;;;;;29.57;16.80;;;10.80;59.30;;;;;;5078645;28;46963;-66
2023/05/09 05:00:45;;;;;;;28.20;17.80;;;10.80;59.20;;;;;;5077500;28;46412;-66
2023/05/09 05:03:11;;;;;;;26.40;16.87;;;11.00;58.90;;;;;;5077263;28;45943;-66
2023/05/09 05:05:37;;;;;;;25.53;16.87;;;11.10;58.60;;;;;;5079181;28;46370;-67
2023/05/09 05:08:02;;;;;;;26.10;16.47;;;11.30;58.30;;;;;;5073514;28;47135;-67
2023/05/09 05:10:29;;;;;;;23.00;15.60;;;11.30;58.00;;;;;;5076864;28;46396;-66
2023/05/09 05:12:55;;;;;;;26.40;16.93;;;11.30;57.90;;;;;;5077608;28;45941;-66
2023/05/09 05:15:20;;;;;;;22.93;15.80;;;11.30;58.00;;;;;;5076012;28;46450;-65
2023/05/09 05:17:46;;;;;;;26.90;16.83;;;11.40;58.00;;;;;;5078794;28;47088;-66
2023/05/09 05:20:11;;;;;;;28.43;16.70;;;11.50;57.40;;;;;;5076209;28;46498;-66
2023/05/09 05:22:37;;;;;;;22.80;15.27;;;11.70;57.00;;;;;;5076284;28;45873;-65
2023/05/09 05:25:04;;;;;;;24.60;15.83;;;11.90;56.60;;;;;;5074237;28;46592;-66
2023/05/09 05:27:30;;;;;;;24.50;16.50;;;11.90;56.10;;;;;;5076517;28;46983;-66
2023/05/09 05:29:55;;;;;;;27.00;16.47;;;12.10;55.90;;;;;;5077271;28;46450;-66
2023/05/09 05:32:21;;;;;;;26.00;16.70;;;12.20;55.60;;;;;;5077004;28;45847;-66
2023/05/09 05:34:46;;;;;;;22.77;15.97;;;12.20;55.10;;;;;;5079911;28;46596;-66
2023/05/09 05:37:12;;;;;;;22.40;15.03;;;12.20;55.50;;;;;;5077436;28;46437;-67
2023/05/09 05:39:38;;;;;;;24.80;15.33;;;12.20;55.60;;;;;;5077272;28;46487;-66
2023/05/09 05:42:03;;;;;;;26.53;15.60;;;12.10;54.70;;;;;;5079825;28;45821;-66
2023/05/09 05:44:29;;;;;;;21.30;15.00;;;12.10;55.80;;;;;;5078421;28;46631;-66
2023/05/09 05:46:54;;;;;;;22.53;15.13;;;12.20;55.60;;;;;;5078850;28;47479;-66
2023/05/09 05:49:20;;;;;;;22.87;15.00;;;12.40;55.30;;;;;;5078081;28;46575;-66
2023/05/09 05:51:46;;;;;;;25.53;15.67;;;12.60;54.90;;;;;;5076342;28;45905;-66
2023/05/09 05:54:11;;;;;;;25.00;14.57;;;12.70;54.10;;;;;;5076907;28;46450;-66
2023/05/09 05:56:37;;;;;;;23.20;15.90;;;12.80;54.20;;;;;;5076064;28;46459;-66
2023/05/09 05:59:03;;;;;;;22.87;15.07;;;12.90;54.40;;;;;;5077571;28;46372;-66
2023/05/09 06:01:28;;;;;;;20.87;15.20;;;12.90;54.30;;;;;;5078217;28;46458;-66
2023/05/09 06:03:54;;;;;;;20.27;14.07;;;13.30;53.70;;;;;;5077344;28;45869;-66
2023/05/09 06:06:25;;;;;;;23.50;14.83;;;13.60;52.70;;;;;;5077132;28;47133;-66
2023/05/09 06:08:50;;;;;;;21.63;13.70;;;13.80;51.70;;;;;;5078013;28;46306;-66
2023/05/09 06:11:16;;;;;;;17.93;12.50;;;14.00;51.10;;;;;;5076781;28;46761;-66
2023/05/09 06:13:42;;;;;;;17.10;13.60;;;14.30;50.00;;;;;;5073075;28;46774;-66
2023/05/09 06:16:08;;;;;;;18.70;12.17;;;14.90;48.70;;;;;;5076021;28;46767;-66
2023/05/09 06:18:36;;;;;;;20.73;13.83;;;15.30;47.60;;;;;;5077903;27;46449;-66
2023/05/09 06:21:02;;;;;;;17.87;12.83;;;15.00;47.50;;;;;;5076922;28;46445;-66
2023/05/09 06:23:28;;;;;;;17.77;12.93;;;15.00;47.40;;;;;;5077639;28;46329;-66
2023/05/09 06:25:54;;;;;;;21.57;13.00;;;14.90;46.60;;;;;;5076044;28;46577;-66
2023/05/09 06:28:19;;;;;;;19.97;12.73;;;14.70;46.80;;;;;;5077531;28;46288;-66
2023/05/09 06:30:45;;;;;;;20.43;13.83;;;14.60;46.80;;;;;;5078187;28;46330;-66
2023/05/09 06:33:10;;;;;;;18.90;13.23;;;14.70;45.20;;;;;;5073726;28;46370;-66
2023/05/09 06:35:36;;;;;;;19.07;12.70;;;15.30;43.30;;;;;;5076464;28;46108;-66
2023/05/09 06:38:02;;;;;;;18.67;12.93;;;15.30;43.30;;;;;;5074878;28;46508;-66
2023/05/09 06:40:27;;;;;;;20.47;13.80;;;15.40;42.60;;;;;;5077227;28;46491;-66
2023/05/09 06:42:53;;;;;;;21.13;13.70;;;15.40;42.10;;;;;;5075037;28;46392;-66
2023/05/09 06:45:19;;;;;;;18.57;12.60;;;15.70;42.20;;;;;;5076554;28;47066;-66
2023/05/09 06:47:44;;;;;;;21.43;14.43;;;16.00;40.50;;;;;;5075251;28;46389;-66
2023/05/09 06:50:10;;;;;;;20.40;13.50;;;16.30;41.20;;;;;;5078339;28;46488;-66
2023/05/09 06:52:35;;;;;;;19.43;14.00;;;16.60;39.80;;;;;;5077086;28;46917;-66
2023/05/09 06:55:02;;;;;;;20.03;13.77;;;16.80;38.50;;;;;;5076769;28;46427;-66
2023/05/09 06:57:28;;;;;;;19.30;14.10;;;16.90;37.20;;;;;;5077469;28;46371;-66
2023/05/09 06:59:54;;;;;;;20.50;14.30;;;16.80;37.70;;;;;;5074554;28;46605;-66
2023/05/09 07:02:19;;;;;;;22.10;14.20;;;17.00;37.90;;;;;;5078020;28;46622;-66
2023/05/09 07:04:45;;;;;;;20.97;15.10;;;17.60;37.00;;;;;;5078504;28;46922;-66
2023/05/09 07:07:10;;;;;;;22.47;15.03;;;18.20;35.10;;;;;;5079241;28;45739;-66
2023/05/09 07:09:36;;;;;;;22.87;15.83;;;18.50;33.80;;;;;;5078151;28;46370;-67
2023/05/09 07:12:02;;;;;;;20.10;13.77;;;18.40;33.60;;;;;;5079031;28;46566;-67
2023/05/09 07:14:27;;;;;;;26.27;15.00;;;18.40;33.70;;;;;;5078186;28;46510;-66
2023/05/09 07:16:53;;;;;;;23.30;14.70;;;18.50;33.40;;;;;;5079876;28;46487;-66
2023/05/09 07:19:18;;;;;;;23.90;15.67;;;18.50;33.30;;;;;;5080518;28;46388;-66
2023/05/09 07:21:44;;;;;;;24.20;15.07;;;18.70;32.80;;;;;;5079173;28;46603;-66
2023/05/09 07:24:10;;;;;;;23.63;16.00;;;18.80;32.90;;;;;;5077384;28;47102;-66
2023/05/09 07:26:35;;;;;;;24.47;16.80;;;18.80;32.90;;;;;;5080122;28;45800;-67
2023/05/09 07:29:01;;;;;;;21.53;14.83;;;18.80;32.90;;;;;;5079710;28;47221;-66
2023/05/09 07:31:27;;;;;;;21.63;14.73;;;19.00;33.20;;;;;;5080725;28;46592;-67
2023/05/09 07:33:52;;;;;;;21.20;14.13;;;19.00;33.20;;;;;;5078984;28;46456;-66
2023/05/09 07:36:18;;;;;;;21.77;15.20;;;19.00;32.60;;;;;;5078865;28;46362;-67
2023/05/09 07:38:46;;;;;;;23.70;14.77;;;18.90;32.10;;;;;;5077652;28;46497;-66
2023/05/09 07:41:12;;;;;;;22.13;16.30;;;18.90;33.00;;;;;;5080754;28;46396;-67
2023/05/09 07:43:38;;;;;;;22.70;15.80;;;19.20;33.30;;;;;;5075395;28;46431;-66
2023/05/09 07:46:03;;;;;;;21.93;15.23;;;19.20;33.30;;;;;;5080319;28;46397;-67
2023/05/09 07:48:29;;;;;;;20.07;14.67;;;19.10;33.20;;;;;;5080933;28;46697;-66
2023/05/09 07:50:54;;;;;;;20.47;14.83;;;18.80;33.60;;;;;;5079194;28;46426;-67
2023/05/09 07:53:20;;;;;;;25.43;14.47;;;18.40;35.10;;;;;;5076749;28;46678;-67
2023/05/09 07:55:49;;;;;;;22.00;15.50;;;18.10;35.10;;;;;;5080555;28;46347;-66
2023/05/09 07:58:15;;;;;;;19.43;14.03;;;17.90;36.10;;;;;;5075315;28;45802;-66
2023/05/09 08:00:41;;;;;;;21.07;15.80;;;17.70;36.10;;;;;;5078667;28;46381;-66
2023/05/09 08:03:07;;;;;;;22.80;14.93;;;17.50;36.80;;;;;;5078268;28;46728;-67
2023/05/09 08:05:32;;;;;;;22.17;15.73;;;17.50;37.10;;;;;;5078453;28;46578;-68
2023/05/09 08:07:58;;;;;;;23.43;14.77;;;17.20;37.80;;;;;;5078598;28;46407;-67
2023/05/09 08:10:25;;;;;;;23.20;15.47;;;17.20;39.30;;;;;;5080255;28;46431;-66
2023/05/09 08:12:51;;;;;;;22.40;16.03;;;17.00;38.40;;;;;;5074354;27;47307;-67
2023/05/09 08:15:17;;;;;;;21.03;14.73;;;17.20;38.20;;;;;;5078937;28;46360;-66
2023/05/09 08:17:42;;;;;;;22.30;15.40;;;17.10;38.20;;;;;;5077959;28;46365;-66
2023/05/09 08:20:09;;;;;;;21.87;15.57;;;17.30;38.30;;;;;;5078542;28;46564;-66
2023/05/09 08:22:40;;;;;;;25.20;16.73;;;17.30;38.30;;;;;;5077681;28;47177;-66
2023/05/09 08:25:06;;;;;;;22.70;15.90;;;17.50;38.30;;;;;;5078229;28;45747;-67
2023/05/09 08:27:32;;;;;;;22.70;15.73;;;17.40;38.20;;;;;;5080247;28;46393;-67
2023/05/09 08:29:58;;;;;;;23.10;15.37;;;17.30;38.40;;;;;;5075786;28;46492;-66
2023/05/09 08:32:23;;;;;;;22.03;15.10;;;17.30;39.30;;;;;;5079501;28;46357;-67
2023/05/09 08:34:49;;;;;;;25.90;16.13;;;17.40;38.80;;;;;;5077092;28;46456;-67
2023/05/09 08:37:15;;;;;;;23.53;14.90;;;17.60;38.60;;;;;;5076294;28;46328;-67
2023/05/09 08:39:40;;;;;;;25.83;15.93;;;17.80;38.30;;;;;;5077838;28;46365;-66
2023/05/09 08:42:08;;;;;;;23.10;15.10;;;17.70;38.30;;;;;;5076384;28;46391;-66
2023/05/09 08:44:34;;;;;;;20.20;15.27;;;18.00;38.20;;;;;;5078758;28;46432;-66
2023/05/09 08:47:03;;;;;;;25.00;14.70;;;18.20;38.00;;;;;;5077464;28;45819;-67
2023/05/09 08:49:29;;;;;;;19.87;14.90;;;18.50;37.70;;;;;;5079324;27;46361;-66
2023/05/09 08:51:56;;;;;;;18.73;13.47;;;18.80;37.40;;;;;;5076124;28;47018;-66
2023/05/09 08:54:22;;;;;;;19.63;14.17;;;18.90;36.90;;;;;;5076582;28;46423;-66
2023/05/09 08:56:49;;;;;;;19.87;14.00;;;18.90;36.70;;;;;;5077901;28;46401;-66
2023/05/09 08:59:16;;;;;;;20.50;12.80;;;18.90;37.10;;;;;;5076694;28;46725;-65
2023/05/09 09:01:43;;;;;;;20.30;13.30;;;18.90;36.80;;;;;;5078558;28;46382;-65
2023/05/09 09:04:10;;;;;;;20.80;13.80;;;19.00;36.80;;;;;;5081428;28;46425;-66
2023/05/09 09:06:37;;;;;;;19.03;12.97;;;19.10;36.60;;;;;;5076492;28;45882;-66
2023/05/09 09:09:05;;;;;;;16.13;11.43;;;19.00;36.90;;;;;;5076662;28;46586;-66
2023/05/09 09:11:32;;;;;;;17.33;11.77;;;19.00;36.70;;;;;;5077975;28;46469;-66
2023/05/09 09:14:02;;;;;;;22.60;13.77;;;19.10;36.60;;;;;;5076340;28;46369;-67
2023/05/09 09:16:28;;;;;;;17.23;12.47;;;18.90;36.70;;;;;;5076702;28;46461;-66
2023/05/09 09:18:55;;;;;;;18.83;12.40;;;18.90;37.20;;;;;;5077834;28;46476;-67
2023/05/09 09:21:22;;;;;;;16.37;11.73;;;18.90;37.20;;;;;;5075229;28;46430;-67
2023/05/09 09:23:49;;;;;;;19.03;12.40;;;18.90;37.20;;;;;;5076358;28;46385;-67
2023/05/09 09:26:15;;;;;;;20.00;12.90;;;19.10;36.20;;;;;;5079562;28;46460;-65
2023/05/09 09:28:41;;;;;;;18.90;12.80;;;19.10;35.90;;;;;;5077884;28;46586;-65
2023/05/09 09:31:24;;;;;;;19.53;13.33;;;18.90;36.10;;;;;;5076157;28;47083;-66
2023/05/09 09:33:50;;;;;;;19.50;11.27;;;18.90;36.90;;;;;;5075527;27;46372;-66
2023/05/09 09:36:26;;;;;;;14.87;10.17;;;19.20;37.10;;;;;;5076513;28;45830;-66
2023/05/09 09:38:57;;;;;;;14.20;9.73;;;19.50;36.70;;;;;;5074610;28;45842;-67
2023/05/09 09:41:32;;;;;;;13.63;10.13;;;19.90;35.20;;;;;;5080204;28;47028;-66
2023/05/09 09:43:58;;;;;;;15.73;10.83;;;20.40;34.40;;;;;;5076632;28;46429;-67
2023/05/09 09:46:24;;;;;;;14.93;9.87;;;20.60;33.20;;;;;;5077337;28;46380;-66
2023/05/09 09:48:53;;;;;;;15.30;10.70;;;20.60;32.80;;;;;;5076501;28;46591;-66
2023/05/09 09:51:20;;;;;;;18.23;13.70;;;20.80;32.40;;;;;;5078138;28;46368;-67
2023/05/09 09:53:46;;;;;;;15.53;12.07;;;20.90;31.70;;;;;;5076227;28;46565;-65
2023/05/09 09:56:11;;;;;;;20.20;10.83;;;21.10;31.40;;;;;;5075993;28;46570;-66
2023/05/09 09:58:37;;;;;;;16.87;12.40;;;21.40;30.80;;;;;;5078496;27;46411;-67
2023/05/09 10:01:07;;;;;;;16.43;12.90;;;21.40;30.30;;;;;;5075922;27;47082;-67
2023/05/09 10:03:46;;;;;;;18.13;12.50;;;20.80;31.70;;;;;;5074179;28;46517;-66
2023/05/09 10:06:14;;;;;;;14.77;11.60;;;20.70;31.70;;;;;;5075576;28;46436;-66
2023/05/09 10:08:41;;;;;;;20.20;12.40;;;20.70;32.00;;;;;;5077557;28;46487;-66
2023/05/09 10:11:08;;;;;;;15.87;11.90;;;20.50;32.20;;;;;;5080993;28;46563;-67
2023/05/09 10:13:35;;;;;;;20.17;10.77;;;20.40;32.00;;;;;;5078594;28;46480;-67
2023/05/09 10:16:02;;;;;;;18.10;10.23;;;20.20;32.70;;;;;;5096830;27;46510;-67
2023/05/09 10:18:32;;;;;;;13.00;9.87;;;20.10;32.20;;;;;;5076909;28;46635;-66
2023/05/09 10:21:00;;;;;;;15.70;9.80;;;20.00;31.90;;;;;;5069265;28;47136;-66
2023/05/09 10:23:28;;;;;;;12.00;9.60;;;20.10;32.00;;;;;;5077353;28;46603;-66
2023/05/09 10:26:08;;;;;;;15.30;9.47;;;20.50;31.70;;;;;;5077436;28;46340;-66
2023/05/09 10:28:37;;;;;;;16.37;9.73;;;20.80;31.00;;;;;;5070211;28;46502;-66
2023/05/09 10:31:17;;;;;;;13.20;9.37;;;20.80;30.70;;;;;;5076053;28;46375;-67
2023/05/09 10:33:47;;;;;;;15.10;9.67;;;20.90;30.80;;;;;;5076111;28;46398;-66
2023/05/09 10:36:16;;;;;;;17.07;11.20;;;20.90;30.40;;;;;;5076208;27;46427;-66
2023/05/09 10:38:42;;;;;;;17.03;11.33;;;20.80;30.40;;;;;;5080282;28;46838;-66
2023/05/09 10:41:10;;;;;;;15.97;11.23;;;20.60;31.20;;;;;;5082642;28;46646;-65
2023/05/09 10:43:36;;;;;;;17.03;11.67;;;20.60;31.10;;;;;;5079225;28;46416;-66
2023/05/09 10:46:04;;;;;;;14.47;10.70;;;20.60;30.50;;;;;;5080646;28;46371;-68
2023/05/09 10:48:31;;;;;;;14.17;11.03;;;20.80;30.30;;;;;;5078277;28;45947;-67
2023/05/09 10:50:59;;;;;;;13.37;10.80;;;21.20;30.00;;;;;;5077099;28;47243;-66
2023/05/09 10:53:46;;;;;;;16.60;9.93;;;21.40;29.80;;;;;;5075959;28;45826;-66
2023/05/09 10:56:32;;;;;;;17.30;11.23;;;21.20;29.80;;;;;;5078149;28;46292;-66
2023/05/09 10:59:00;;;;;;;13.73;10.83;;;21.20;29.90;;;;;;5079596;28;46384;-66
2023/05/09 11:01:35;;;;;;;13.17;9.60;;;21.10;30.00;;;;;;5079429;28;46520;-67
2023/05/09 11:04:11;;;;;;;12.20;9.70;;;21.10;29.30;;;;;;5076016;28;46429;-67
2023/05/09 11:06:43;;;;;;;14.73;9.57;;;21.10;29.10;;;;;;5080751;28;46434;-66
2023/05/09 11:09:26;;;;;;;12.97;8.90;;;21.10;28.90;;;;;;5081023;28;46579;-67
2023/05/09 11:11:56;;;;;;;14.00;9.10;;;21.20;29.10;;;;;;5076004;28;46771;-66
2023/05/09 11:14:30;;;;;;;14.43;9.10;;;21.50;28.70;;;;;;5077014;28;46377;-67
2023/05/09 11:16:57;;;;;;;17.80;10.10;;;21.80;27.90;;;;;;5080408;28;46626;-66
2023/05/09 11:19:37;;;;;;;12.53;8.93;;;22.20;27.30;;;;;;5079018;28;46525;-66
2023/05/09 11:22:43;;;;;;;12.23;8.37;;;22.40;26.30;;;;;;5078086;28;46443;-66
2023/05/09 11:25:13;;;;;;;12.97;9.63;;;22.40;26.70;;;;;;5078305;28;46371;-67
2023/05/09 11:27:42;;;;;;;11.47;7.90;;;22.40;26.80;;;;;;5079593;28;46463;-66
2023/05/09 11:30:09;;;;;;;10.30;8.37;;;22.50;26.30;;;;;;5080643;28;46594;-67
2023/05/09 11:32:56;;;;;;;12.80;8.37;;;22.10;26.30;;;;;;5080588;28;47013;-66
2023/05/09 11:35:25;;;;;;;13.33;8.17;;;21.80;26.30;;;;;;5073766;28;46419;-66
2023/05/09 11:38:02;;;;;;;11.63;7.80;;;21.70;26.80;;;;;;5080227;28;46470;-66
2023/05/09 11:40:29;;;;;;;11.80;8.47;;;22.20;26.60;;;;;;5079715;28;46433;-66
2023/05/09 11:42:56;;;;;;;10.80;7.90;;;22.40;26.20;;;;;;5078567;28;46013;-67
2023/05/09 11:45:23;;;;;;;10.63;7.40;;;22.50;26.00;;;;;;5079539;28;46470;-66
2023/05/09 11:47:50;;;;;;;10.40;7.70;;;22.60;25.40;;;;;;5076201;28;46514;-66
2023/05/09 11:50:18;;;;;;;14.43;7.00;;;22.40;25.80;;;;;;5080511;28;46566;-66
2023/05/09 11:52:44;;;;;;;12.83;7.60;;;22.50;25.70;;;;;;5077854;28;47865;-66
2023/05/09 11:55:18;;;;;;;10.13;7.00;;;22.50;25.10;;;;;;5077081;28;46606;-66
2023/05/09 11:57:47;;;;;;;11.30;7.50;;;22.40;25.30;;;;;;5077910;28;46367;-67
2023/05/09 12:00:15;;;;;;;9.83;6.77;;;22.10;25.20;;;;;;5078852;28;46440;-68
2023/05/09 12:02:43;;;;;;;13.40;7.57;;;22.10;25.50;;;;;;5075921;28;47242;-67
2023/05/09 12:05:13;;;;;;;12.40;6.63;;;22.20;25.10;;;;;;5076990;28;46341;-66
2023/05/09 12:07:40;;;;;;;14.63;7.43;;;22.20;25.10;;;;;;5077560;28;46504;-66
2023/05/09 12:10:07;;;;;;;9.40;6.87;;;22.20;24.80;;;;;;5078968;28;45970;-66
2023/05/09 12:12:35;;;;;;;9.60;7.00;;;22.30;24.60;;;;;;5075226;28;46476;-66
2023/05/09 12:15:07;;;;;;;11.20;6.50;;;22.40;24.20;;;;;;5078976;28;46375;-66
2023/05/09 12:17:33;;;;;;;8.63;6.20;;;22.50;24.20;;;;;;5078389;28;46637;-66
2023/05/09 12:20:00;;;;;;;15.20;7.17;;;22.90;23.30;;;;;;5079569;28;46503;-66
2023/05/09 12:22:26;;;;;;;14.43;6.70;;;23.10;23.70;;;;;;5079323;28;46413;-66
2023/05/09 12:24:53;;;;;;;10.80;7.43;;;23.00;22.50;;;;;;5074565;28;46398;-65
2023/05/09 12:27:18;;;;;;;10.37;7.57;;;22.90;22.70;;;;;;5079392;28;47346;-65
2023/05/09 12:29:46;;;;;;;10.30;7.80;;;23.10;22.10;;;;;;5078756;28;46836;-65
2023/05/09 12:32:14;;;;;;;12.47;9.13;;;23.20;22.00;;;;;;5078096;28;46498;-66
2023/05/09 12:34:43;;;;;;;12.13;9.20;;;23.30;22.30;;;;;;5078493;28;46394;-67